Time;durP1;ratioP1;P1;durP2;ratioP2;P2;SDS_P1;SDS_P2;PMS_P1;PMS_P2;Temp;Humidity;BMP_temperature;BMP_pressure;BME280_temperature;BME280_humidity;BME280_pressure;Samples;Min_cycle;Max_cycle;Signal;HPM_P1;HPM_P2
2022/10/04 00:01:09;;;;;;;1.10;1.00;;;;;;;20.40;30.26;99497.66;4936660;28;20071;-89
2022/10/04 00:03:47;;;;;;;0.90;0.80;;;;;;;20.39;30.46;99506.84;4947481;29;20034;-91
2022/10/04 00:06:20;;;;;;;1.00;0.90;;;;;;;20.58;30.34;99498.94;4940405;28;20030;-90
2022/10/04 00:09:00;;;;;;;0.90;0.90;;;;;;;20.84;30.00;99501.59;4947822;29;20042;-90
2022/10/04 00:11:31;;;;;;;1.63;1.00;;;;;;;21.04;29.71;99484.44;4941139;29;20047;-91
2022/10/04 00:13:58;;;;;;;1.27;1.17;;;;;;;21.31;29.65;99489.41;4932096;29;20043;-90
2022/10/04 00:16:35;;;;;;;2.97;1.00;;;;;;;21.46;29.25;99488.56;4942622;29;20392;-92
2022/10/04 00:19:13;;;;;;;1.02;1.00;;;;;;;21.52;29.03;99486.59;4929624;29;20089;-90
2022/10/04 00:22:11;;;;;;;1.20;1.10;;;;;;;21.44;29.14;99471.69;4940915;29;20027;-91
2022/10/04 00:24:37;;;;;;;2.85;1.20;;;;;;;21.27;29.53;99466.63;4936397;28;20043;-91
2022/10/04 00:27:23;;;;;;;1.20;1.10;;;;;;;21.16;29.54;99468.59;4946044;29;20366;-91
2022/10/04 00:30:00;;;;;;;0.93;0.90;;;;;;;21.05;29.71;99475.16;4924802;29;20028;-91
2022/10/04 00:32:58;;;;;;;2.20;1.10;;;;;;;20.95;29.79;99478.72;4945210;28;20472;-90
2022/10/04 00:35:23;;;;;;;1.27;1.10;;;;;;;20.82;29.73;99468.50;4948166;28;20070;-90
2022/10/04 00:38:00;;;;;;;1.10;1.00;;;;;;;20.74;29.82;99467.16;4936301;28;20027;-90
2022/10/04 00:40:39;;;;;;;0.90;0.90;;;;;;;20.68;29.85;99465.56;4936890;28;20038;-91
2022/10/04 00:43:26;;;;;;;2.15;1.02;;;;;;;20.55;30.04;99444.41;4938795;29;20198;-90
2022/10/04 00:46:00;;;;;;;1.33;1.17;;;;;;;20.57;30.04;99458.50;4946575;29;20035;-92
2022/10/04 00:48:33;;;;;;;1.67;1.13;;;;;;;20.53;29.96;99447.38;4942738;29;20023;-92
2022/10/04 00:51:16;;;;;;;4.07;1.08;;;;;;;20.50;30.00;99452.56;4940853;28;20067;-90
2022/10/04 00:54:14;;;;;;;2.08;1.38;;;;;;;20.45;30.31;99446.06;4943649;28;20038;-91
2022/10/04 00:56:51;;;;;;;1.60;1.02;;;;;;;20.38;30.16;99442.81;4931023;29;20484;-90
2022/10/04 00:59:35;;;;;;;1.10;1.00;;;;;;;20.38;30.37;99433.88;4946698;29;20074;-90
2022/10/04 01:02:06;;;;;;;1.17;1.05;;;;;;;20.52;30.07;99424.03;4934420;28;20036;-90
2022/10/04 01:04:41;;;;;;;2.33;0.82;;;;;;;20.76;29.82;99424.25;4928585;29;20393;-90
2022/10/04 01:07:07;;;;;;;1.23;0.90;;;;;;;20.98;29.71;99426.56;4946806;29;20035;-90
2022/10/04 01:09:35;;;;;;;1.13;0.93;;;;;;;21.17;29.35;99424.03;4931845;29;20028;-92
2022/10/04 01:12:12;;;;;;;0.98;0.90;;;;;;;21.48;28.95;99432.00;4937465;29;20051;-91
2022/10/04 01:15:03;;;;;;;1.55;1.05;;;;;;;21.59;28.94;99434.63;4926564;29;20162;-91
2022/10/04 01:17:28;;;;;;;1.58;0.80;;;;;;;21.49;28.98;99430.09;4943742;28;20128;-92
2022/10/04 01:19:54;;;;;;;0.90;0.90;;;;;;;21.40;29.16;99435.28;4948816;28;20103;-92
2022/10/04 01:22:29;;;;;;;1.00;0.98;;;;;;;21.28;29.16;99424.75;4947755;29;20047;-91
2022/10/04 01:24:54;;;;;;;0.95;0.90;;;;;;;21.15;29.39;99431.66;4945020;29;20027;-91
2022/10/04 01:27:43;;;;;;;1.40;1.00;;;;;;;20.80;29.59;99390.03;4948427;29;20103;-90
2022/10/04 01:30:15;;;;;;;0.95;0.95;;;;;;;20.88;29.53;99417.69;4949150;28;20052;-92
2022/10/04 01:32:40;;;;;;;1.17;1.08;;;;;;;20.80;29.59;99430.75;4941868;29;20035;-89
2022/10/04 01:35:07;;;;;;;1.10;1.00;;;;;;;20.72;29.69;99428.63;4942354;29;20400;-91
2022/10/04 01:37:33;;;;;;;1.17;1.02;;;;;;;20.63;29.94;99405.84;4933559;29;20056;-90
2022/10/04 01:39:59;;;;;;;1.10;1.00;;;;;;;20.53;29.84;99395.81;4946467;29;20027;-91
2022/10/04 01:42:34;;;;;;;1.67;0.90;;;;;;;20.58;30.01;99416.72;4933184;29;20034;-91
2022/10/04 01:45:14;;;;;;;1.95;1.10;;;;;;;20.54;29.84;99407.47;4943099;29;20040;-91
2022/10/04 01:47:45;;;;;;;2.05;0.98;;;;;;;20.50;30.01;99420.00;4938060;29;20082;-91
2022/10/04 01:50:17;;;;;;;1.77;1.05;;;;;;;20.47;30.13;99417.81;4936346;29;20027;-91
2022/10/04 01:52:46;;;;;;;1.50;1.02;;;;;;;20.39;30.01;99420.03;4948507;29;20023;-91
2022/10/04 01:55:18;;;;;;;2.38;1.02;;;;;;;20.38;30.27;99412.16;4949730;29;20082;-92
2022/10/04 01:57:51;;;;;;;1.08;1.00;;;;;;;20.53;30.11;99416.72;4949941;28;20050;-92
2022/10/04 02:00:18;;;;;;;0.90;0.90;;;;;;;20.75;29.77;99411.78;4947341;28;20042;-91
2022/10/04 02:02:52;;;;;;;0.95;0.80;;;;;;;21.03;29.58;99414.09;4926864;29;20401;-91
2022/10/04 02:05:36;;;;;;;1.00;0.90;;;;;;;21.28;29.14;99413.88;4944096;28;20114;-89
2022/10/04 02:08:03;;;;;;;0.80;0.80;;;;;;;21.43;28.99;99418.41;4938630;29;20051;-91
2022/10/04 02:10:29;;;;;;;0.90;0.90;;;;;;;21.46;29.00;99415.16;4915374;29;20570;-87
2022/10/04 02:12:56;;;;;;;1.60;0.90;;;;;;;21.51;28.89;99412.41;4941273;28;20039;-90
2022/10/04 02:15:22;;;;;;;2.25;1.10;;;;;;;21.46;28.95;99415.16;4940818;28;20092;-90
2022/10/04 02:17:47;;;;;;;1.00;0.82;;;;;;;21.35;29.13;99413.56;4942780;29;20039;-90
2022/10/04 02:20:18;;;;;;;1.35;0.70;;;;;;;21.27;29.19;99411.47;4934647;28;20056;-90
2022/10/04 02:22:45;;;;;;;1.10;1.00;;;;;;;21.13;29.43;99408.59;4949088;29;20027;-90
2022/10/04 02:25:12;;;;;;;1.00;0.90;;;;;;;20.95;29.48;99396.44;4948168;29;20063;-90
2022/10/04 02:27:38;;;;;;;1.00;1.00;;;;;;;20.89;29.38;99411.16;4948320;29;20449;-87
2022/10/04 02:30:06;;;;;;;0.88;0.88;;;;;;;20.80;29.42;99403.59;4950187;28;20036;-89
2022/10/04 02:35:16;;;;;;;1.05;0.90;;;;;;;20.65;29.49;99400.16;4943658;29;20118;-90
2022/10/04 02:37:41;;;;;;;1.00;0.90;;;;;;;20.62;29.67;99404.22;4946627;29;20110;-90
2022/10/04 02:40:12;;;;;;;2.72;1.05;;;;;;;20.60;29.75;99414.53;4927173;29;20027;-90
2022/10/04 02:43:36;;;;;;;1.58;1.00;;;;;;;20.55;30.05;99420.78;4947513;29;20086;-89
2022/10/04 02:46:06;;;;;;;0.82;0.82;;;;;;;20.48;29.93;99427.59;4941955;29;20047;-90
2022/10/04 02:48:43;;;;;;;2.17;0.98;;;;;;;20.44;30.08;99414.59;4944946;29;20027;-88
2022/10/04 02:51:35;;;;;;;0.88;0.82;;;;;;;20.58;29.92;99422.13;4941428;28;20392;-89
2022/10/04 02:54:14;;;;;;;0.95;0.85;;;;;;;20.85;29.77;99423.66;4945628;29;20040;-88
2022/10/04 02:56:40;;;;;;;1.83;0.93;;;;;;;21.13;29.40;99419.44;4933206;29;20473;-89
2022/10/04 02:59:06;;;;;;;1.30;0.95;;;;;;;21.32;29.15;99422.31;4943803;29;20386;-89
2022/10/04 03:01:49;;;;;;;0.90;0.90;;;;;;;21.43;29.11;99410.25;4942287;28;20107;-89
2022/10/04 03:04:15;;;;;;;1.97;0.90;;;;;;;21.44;28.87;99411.06;4950928;28;20078;-89
2022/10/04 03:06:42;;;;;;;1.23;1.00;;;;;;;21.39;29.22;99411.94;4944633;28;20287;-89
2022/10/04 03:09:07;;;;;;;1.10;1.00;;;;;;;21.29;29.25;99409.28;4941664;29;20035;-91
2022/10/04 03:11:35;;;;;;;1.05;0.95;;;;;;;21.16;29.38;99414.25;4947937;28;20123;-91
2022/10/04 03:14:01;;;;;;;2.38;1.00;;;;;;;21.06;29.50;99411.63;4928453;29;20492;-91
2022/10/04 03:16:36;;;;;;;0.75;0.70;;;;;;;20.95;29.76;99426.31;4933679;29;20358;-90
2022/10/04 03:19:01;;;;;;;1.50;0.90;;;;;;;20.58;29.59;99376.00;4951466;28;20548;-92
2022/10/04 03:21:27;;;;;;;0.90;0.90;;;;;;;20.76;29.79;99418.81;4946475;28;20449;-92
2022/10/04 03:23:53;;;;;;;1.17;1.00;;;;;;;20.75;29.61;99416.41;4943758;28;20027;-91
2022/10/04 03:26:27;;;;;;;0.80;0.80;;;;;;;20.71;29.79;99420.75;4950624;29;20493;-90
2022/10/04 03:28:54;;;;;;;2.33;0.88;;;;;;;20.61;29.87;99416.13;4940813;29;20036;-89
2022/10/04 03:31:19;;;;;;;1.15;1.05;;;;;;;20.55;30.00;99417.25;4939934;29;20062;-91
2022/10/04 03:33:45;;;;;;;1.05;1.00;;;;;;;20.55;30.16;99419.97;4942369;29;20051;-90
2022/10/04 03:36:16;;;;;;;1.05;0.95;;;;;;;20.50;29.97;99422.69;4946689;29;20111;-90
2022/10/04 03:38:41;;;;;;;0.90;0.90;;;;;;;20.47;30.06;99420.53;4950917;28;20809;-91
2022/10/04 03:41:08;;;;;;;1.00;1.00;;;;;;;20.39;30.11;99422.72;4946293;28;20434;-91
2022/10/04 03:43:34;;;;;;;1.30;1.20;;;;;;;20.36;30.13;99426.00;4932280;29;20444;-91
2022/10/04 03:46:00;;;;;;;0.90;0.70;;;;;;;20.40;30.24;99410.81;4938780;29;20036;-91
2022/10/04 03:48:38;;;;;;;1.17;1.08;;;;;;;20.69;29.77;99417.50;4946923;29;20035;-90
2022/10/04 03:51:05;;;;;;;0.80;0.80;;;;;;;20.96;29.59;99417.09;4936105;29;20036;-90
2022/10/04 03:53:38;;;;;;;0.80;0.80;;;;;;;21.23;29.19;99415.84;4944923;29;20038;-91
2022/10/04 03:56:19;;;;;;;1.75;0.90;;;;;;;21.36;29.02;99415.22;4947240;29;20110;-91
2022/10/04 03:58:45;;;;;;;0.80;0.80;;;;;;;21.48;29.08;99421.13;4939440;29;20037;-90
2022/10/04 04:01:34;;;;;;;0.95;0.95;;;;;;;21.49;29.05;99425.47;4937813;29;20034;-90
2022/10/04 04:04:01;;;;;;;2.15;0.80;;;;;;;21.37;29.15;99436.66;4932368;29;20050;-91
2022/10/04 04:06:48;;;;;;;0.93;0.88;;;;;;;21.27;29.17;99419.63;4941684;29;20476;-89
2022/10/04 04:09:31;;;;;;;1.10;1.00;;;;;;;21.13;29.45;99425.69;4941890;28;20032;-91
2022/10/04 04:11:56;;;;;;;1.10;1.00;;;;;;;21.00;29.51;99420.88;4943252;29;20095;-91
2022/10/04 04:14:26;;;;;;;1.10;1.00;;;;;;;20.88;29.74;99414.97;4940902;29;20104;-91
2022/10/04 04:16:52;;;;;;;1.27;1.00;;;;;;;20.77;29.65;99419.66;4946047;29;20047;-90
2022/10/04 04:19:27;;;;;;;1.00;0.90;;;;;;;20.72;29.71;99415.03;4941336;28;20023;-90
2022/10/04 04:21:53;;;;;;;4.60;1.33;;;;;;;20.72;29.73;99423.19;4933058;29;20039;-90
2022/10/04 04:24:26;;;;;;;1.05;1.00;;;;;;;20.61;29.92;99416.13;4944161;28;20477;-91
2022/10/04 04:26:57;;;;;;;1.17;1.00;;;;;;;20.56;29.91;99422.41;4937202;29;20186;-90
2022/10/04 04:29:32;;;;;;;1.05;0.90;;;;;;;20.54;30.03;99418.34;4942311;29;20284;-91
2022/10/04 04:32:00;;;;;;;1.08;0.98;;;;;;;20.51;29.92;99436.00;4941196;29;20035;-89
2022/10/04 04:34:29;;;;;;;1.02;0.93;;;;;;;20.45;30.00;99431.66;4938953;29;20023;-88
2022/10/04 04:36:59;;;;;;;1.58;0.90;;;;;;;20.42;30.50;99437.63;4923830;29;20550;-90
2022/10/04 04:39:36;;;;;;;3.10;1.00;;;;;;;20.41;30.43;99434.13;4941590;28;20023;-89
2022/10/04 04:42:31;;;;;;;1.60;0.93;;;;;;;20.63;30.03;99433.00;4939749;28;20024;-90
2022/10/04 04:45:04;;;;;;;1.20;1.10;;;;;;;20.90;29.76;99426.34;4949220;28;20110;-89
2022/10/04 04:47:33;;;;;;;2.42;0.73;;;;;;;21.10;29.58;99423.53;4946844;28;20051;-90
2022/10/04 04:50:07;;;;;;;1.25;1.02;;;;;;;21.34;29.07;99433.72;4939152;29;20040;-90
2022/10/04 04:52:32;;;;;;;1.48;1.05;;;;;;;21.47;29.08;99429.56;4947278;29;20033;-91
2022/10/04 04:54:58;;;;;;;0.88;0.88;;;;;;;21.51;29.05;99434.16;4940264;29;20110;-90
2022/10/04 04:57:23;;;;;;;1.00;1.00;;;;;;;21.47;29.06;99438.53;4949637;29;20106;-90
2022/10/04 04:59:53;;;;;;;1.73;1.02;;;;;;;21.34;29.29;99431.00;4941580;28;20058;-90
2022/10/04 05:02:35;;;;;;;1.58;0.93;;;;;;;21.26;29.42;99437.03;4934601;29;20032;-90
2022/10/04 05:05:30;;;;;;;1.00;1.00;;;;;;;21.11;29.53;99444.19;4941303;29;20031;-90
2022/10/04 05:08:08;;;;;;;1.00;0.90;;;;;;;20.97;29.64;99429.56;4920857;29;20028;-89
2022/10/04 05:10:33;;;;;;;0.90;0.90;;;;;;;20.86;29.90;99438.88;4923874;29;20404;-90
2022/10/04 05:13:00;;;;;;;1.00;1.00;;;;;;;20.77;29.60;99436.75;4939254;28;20039;-91
2022/10/04 05:15:27;;;;;;;1.30;0.95;;;;;;;20.75;29.73;99447.06;4948852;29;20503;-89
2022/10/04 05:17:53;;;;;;;1.10;1.00;;;;;;;20.69;29.92;99445.44;4939769;29;20040;-90
2022/10/04 05:20:19;;;;;;;1.13;1.00;;;;;;;20.65;30.00;99444.41;4939142;28;20026;-90
2022/10/04 05:22:46;;;;;;;2.25;1.10;;;;;;;20.60;29.92;99442.47;4946650;29;20031;-89
2022/10/04 05:25:15;;;;;;;0.90;0.90;;;;;;;20.57;30.12;99439.50;4927616;29;20037;-90
2022/10/04 05:27:43;;;;;;;1.15;1.05;;;;;;;20.53;30.14;99444.66;4943638;29;20035;-90
2022/10/04 05:30:28;;;;;;;1.73;1.00;;;;;;;20.48;30.14;99449.31;4948959;29;20526;-90
2022/10/04 05:33:05;;;;;;;1.17;1.02;;;;;;;20.44;30.38;99449.06;4941931;28;20068;-90
2022/10/04 05:35:53;;;;;;;0.90;0.90;;;;;;;20.39;30.31;99462.63;4946560;28;20031;-87
2022/10/04 05:38:43;;;;;;;1.15;1.00;;;;;;;20.37;30.28;99454.75;4948546;29;20023;-89
2022/10/04 05:41:20;;;;;;;1.10;0.90;;;;;;;20.54;30.17;99456.34;4925591;29;20027;-89
2022/10/04 05:43:48;;;;;;;1.20;1.10;;;;;;;20.78;29.95;99460.09;4945910;28;20035;-89
2022/10/04 05:46:30;;;;;;;0.70;0.70;;;;;;;21.06;29.63;99455.06;4945818;28;20027;-90
2022/10/04 05:48:59;;;;;;;1.30;0.80;;;;;;;21.23;29.54;99448.44;4940810;28;20452;-90
2022/10/04 05:51:32;;;;;;;1.25;0.70;;;;;;;21.26;29.27;99439.75;4945221;29;20110;-90
2022/10/04 05:54:01;;;;;;;2.97;0.90;;;;;;;21.35;29.45;99447.03;4922853;29;20043;-90
2022/10/04 05:56:30;;;;;;;0.70;0.70;;;;;;;21.34;29.36;99464.41;4937039;29;20039;-90
2022/10/04 05:59:08;;;;;;;0.80;0.80;;;;;;;21.24;29.56;99466.38;4943052;28;20036;-90
2022/10/04 06:02:02;;;;;;;1.15;1.00;;;;;;;21.12;29.74;99464.81;4942965;29;20027;-89
2022/10/04 06:04:47;;;;;;;1.20;1.10;;;;;;;20.98;29.92;99480.09;4945204;28;20045;-90
2022/10/04 06:07:18;;;;;;;1.17;1.05;;;;;;;20.88;30.08;99474.72;4945518;29;20034;-89
2022/10/04 06:10:35;;;;;;;1.48;1.05;;;;;;;20.75;30.22;99476.94;4939104;28;20038;-89
2022/10/04 06:13:37;;;;;;;1.27;1.00;;;;;;;20.70;30.20;99471.53;4919845;29;20050;-90
2022/10/04 06:16:27;;;;;;;1.08;1.00;;;;;;;20.63;30.15;99469.09;4941804;29;20540;-91
2022/10/04 06:19:24;;;;;;;0.98;0.80;;;;;;;20.58;30.27;99469.09;4944046;29;20075;-91
2022/10/04 06:21:51;;;;;;;1.17;1.08;;;;;;;20.53;30.25;99469.09;4941686;29;20046;-91
2022/10/04 06:24:19;;;;;;;1.40;1.30;;;;;;;20.52;30.32;99472.09;4941670;28;20020;-91
2022/10/04 06:26:50;;;;;;;1.10;1.00;;;;;;;20.47;30.58;99470.19;4941988;28;20398;-89
2022/10/04 06:29:21;;;;;;;1.88;0.90;;;;;;;20.44;30.41;99482.41;4944815;28;20041;-91
2022/10/04 06:32:14;;;;;;;1.77;1.00;;;;;;;20.41;30.48;99477.53;4938638;28;20054;-91
2022/10/04 06:35:05;;;;;;;2.15;1.02;;;;;;;20.38;30.55;99474.56;4946262;28;20035;-91
2022/10/04 06:37:51;;;;;;;1.33;1.20;;;;;;;20.29;30.64;99471.59;4941256;29;20071;-91
2022/10/04 06:40:34;;;;;;;0.95;0.88;;;;;;;20.36;30.82;99463.97;4938211;29;20485;-90
2022/10/04 06:43:34;;;;;;;0.85;0.85;;;;;;;20.59;30.42;99472.59;4951518;29;20480;-90
2022/10/04 06:46:11;;;;;;;4.32;0.90;;;;;;;20.81;30.02;99451.38;4939247;28;20059;-90
2022/10/04 06:48:55;;;;;;;1.30;0.90;;;;;;;21.13;29.83;99463.72;4944536;28;20028;-91
2022/10/04 06:51:42;;;;;;;0.73;0.73;;;;;;;21.29;29.58;99474.50;4953861;28;20019;-92
2022/10/04 06:54:13;;;;;;;0.85;0.80;;;;;;;21.36;29.58;99470.38;4948083;29;20551;-92
2022/10/04 06:56:56;;;;;;;1.45;0.80;;;;;;;21.31;29.83;99464.97;4945392;28;20123;-93
2022/10/04 06:59:51;;;;;;;1.85;0.90;;;;;;;21.19;29.87;99469.94;4944692;29;20070;-91
2022/10/04 07:02:40;;;;;;;1.75;1.10;;;;;;;21.03;30.06;99474.66;4945365;28;20024;-91
2022/10/04 07:05:52;;;;;;;0.95;0.93;;;;;;;20.95;30.38;99480.66;4940751;29;20124;-92
2022/10/04 07:08:38;;;;;;;1.13;0.90;;;;;;;20.84;30.26;99485.31;4928817;29;20279;-91
2022/10/04 07:11:44;;;;;;;0.85;0.80;;;;;;;20.74;30.69;99494.31;4927861;29;20043;-91
2022/10/04 07:14:16;;;;;;;1.27;0.88;;;;;;;20.65;30.67;99487.81;4930688;29;20028;-92
2022/10/04 07:16:48;;;;;;;0.95;0.80;;;;;;;20.66;30.78;99496.78;4943374;29;20118;-91
2022/10/04 07:19:19;;;;;;;1.33;0.90;;;;;;;20.58;30.86;99500.84;4947926;28;20035;-91
2022/10/04 07:22:06;;;;;;;0.75;0.75;;;;;;;20.54;30.98;99506.03;4940208;29;20027;-92
2022/10/04 07:25:01;;;;;;;0.80;0.80;;;;;;;20.50;31.06;99507.63;4943693;29;20071;-92
2022/10/04 07:29:19;;;;;;;1.65;1.00;;;;;;;20.35;30.98;99492.22;4940612;29;20034;-92
2022/10/04 07:30:35;;;;;;;2.03;0.90;;;;;;;20.16;31.18;99470.28;4941038;29;20088;-91
2022/10/04 07:33:00;;;;;;;1.27;0.70;;;;;;;20.16;31.05;99480.28;4933253;29;20100;-92
2022/10/04 07:35:35;;;;;;;0.85;0.85;;;;;;;20.34;31.43;99512.28;4930888;29;20495;-91
2022/10/04 07:38:14;;;;;;;1.98;0.90;;;;;;;20.33;31.29;99504.44;4917425;29;20038;-91
2022/10/04 07:40:56;;;;;;;0.88;0.88;;;;;;;20.30;31.40;99511.22;4945169;28;20502;-92
2022/10/04 07:43:32;;;;;;;1.00;0.90;;;;;;;20.08;31.57;99482.47;4942466;29;20093;-90
2022/10/04 07:46:22;;;;;;;0.88;0.88;;;;;;;20.25;31.57;99522.09;4935603;29;20027;-91
2022/10/04 07:48:48;;;;;;;1.13;1.02;;;;;;;20.18;31.55;99516.09;4941700;29;20032;-91
2022/10/04 07:51:18;;;;;;;0.80;0.80;;;;;;;20.35;31.46;99522.06;4940818;28;20027;-92
2022/10/04 07:53:54;;;;;;;0.80;0.80;;;;;;;20.62;31.01;99529.09;4933333;29;20374;-92
2022/10/04 07:56:25;;;;;;;0.80;0.80;;;;;;;20.80;30.83;99517.66;4917766;29;20175;-90
2022/10/04 07:59:09;;;;;;;0.85;0.85;;;;;;;21.09;30.68;99519.69;4942555;29;20042;-91
2022/10/04 08:01:56;;;;;;;1.33;0.82;;;;;;;21.28;30.40;99521.78;4936653;29;20078;-91
2022/10/04 08:04:54;;;;;;;0.60;0.60;;;;;;;21.36;30.28;99518.47;4945429;28;20039;-91
2022/10/04 08:07:26;;;;;;;0.88;0.73;;;;;;;21.16;30.52;99506.63;4931240;29;20043;-92
2022/10/04 08:10:34;;;;;;;0.98;0.88;;;;;;;21.13;30.72;99528.94;4924515;29;20031;-92
2022/10/04 08:13:21;;;;;;;0.80;0.80;;;;;;;21.05;30.88;99525.97;4934787;29;20062;-92
2022/10/04 08:15:47;;;;;;;1.05;0.90;;;;;;;20.72;30.97;99501.13;4941139;28;20063;-92
2022/10/04 08:18:58;;;;;;;0.70;0.70;;;;;;;20.83;31.04;99532.56;4920546;29;20035;-92
2022/10/04 08:21:30;;;;;;;1.00;0.90;;;;;;;20.74;31.22;99545.88;4929957;29;20101;-92
2022/10/04 08:23:59;;;;;;;1.33;0.60;;;;;;;20.65;31.22;99547.56;4943693;28;20043;-92
2022/10/04 08:26:55;;;;;;;0.57;0.57;;;;;;;20.62;31.42;99545.38;4941798;29;20082;-91
2022/10/04 08:30:03;;;;;;;0.80;0.80;;;;;;;20.55;31.56;99552.97;4946582;29;20032;-90
2022/10/04 08:32:32;;;;;;;0.70;0.70;;;;;;;20.34;31.53;99525.84;4950399;28;20463;-91
2022/10/04 08:35:28;;;;;;;1.27;0.70;;;;;;;20.49;31.40;99554.88;4946338;29;20081;-91
2022/10/04 08:38:13;;;;;;;0.65;0.65;;;;;;;20.33;31.44;99551.34;4903605;29;20031;-90
2022/10/04 08:40:57;;;;;;;0.75;0.73;;;;;;;20.41;31.59;99563.56;4945044;29;20023;-91
2022/10/04 08:44:00;;;;;;;0.82;0.80;;;;;;;20.38;31.85;99564.13;4941791;29;20031;-91
2022/10/04 08:46:42;;;;;;;0.60;0.60;;;;;;;20.34;31.75;99568.47;4942423;29;20035;-91
2022/10/04 08:49:28;;;;;;;0.70;0.70;;;;;;;20.14;31.94;99558.44;4942741;29;20114;-91
2022/10/04 08:52:12;;;;;;;0.70;0.70;;;;;;;20.29;31.74;99576.63;4931468;29;20083;-91
2022/10/04 08:55:14;;;;;;;0.63;0.63;;;;;;;20.27;31.92;99579.59;4960014;28;20038;-91
2022/10/04 08:57:55;;;;;;;1.20;0.70;;;;;;;20.23;31.84;99578.50;4940161;29;20556;-91
2022/10/04 09:00:49;;;;;;;0.60;0.60;;;;;;;20.24;32.02;99580.13;4941320;28;20050;-91
2022/10/04 09:04:05;;;;;;;0.50;0.50;;;;;;;20.18;31.92;99581.19;4947865;28;20059;-91
2022/10/04 09:07:03;;;;;;;0.93;0.60;;;;;;;20.16;31.93;99580.66;4926208;28;20098;-91
2022/10/04 09:09:56;;;;;;;0.70;0.70;;;;;;;20.13;31.94;99589.34;4942820;29;20020;-91
2022/10/04 09:12:43;;;;;;;0.65;0.65;;;;;;;20.14;32.10;99590.97;4940959;29;20058;-91
2022/10/04 09:15:29;;;;;;;0.63;0.55;;;;;;;20.02;31.77;99548.69;4941066;29;20110;-91
2022/10/04 09:18:21;;;;;;;1.42;0.57;;;;;;;20.63;31.44;99587.75;4947605;28;20055;-91
2022/10/04 09:21:12;;;;;;;0.60;0.60;;;;;;;20.89;31.16;99590.41;4918731;28;20087;-90
2022/10/04 09:23:55;;;;;;;0.57;0.57;;;;;;;21.09;30.95;99601.19;4944081;28;20074;-90
2022/10/04 09:26:23;;;;;;;0.60;0.60;;;;;;;20.87;30.93;99543.69;4951259;28;20046;-91
2022/10/04 09:29:25;;;;;;;0.50;0.50;;;;;;;21.15;31.06;99599.28;4929639;29;20118;-91
2022/10/04 09:32:15;;;;;;;0.57;0.57;;;;;;;21.03;31.20;99605.03;4940737;29;20049;-91
2022/10/04 09:35:06;;;;;;;0.60;0.60;;;;;;;20.91;31.21;99604.53;4929375;29;20031;-91
2022/10/04 09:38:17;;;;;;;1.85;0.47;;;;;;;20.66;31.41;99583.66;4932386;29;20555;-91
2022/10/04 09:41:07;;;;;;;0.70;0.68;;;;;;;20.68;31.60;99601.31;4890478;29;20045;-92
2022/10/04 09:44:02;;;;;;;0.65;0.60;;;;;;;20.58;31.62;99595.84;4907323;29;20048;-91
2022/10/04 09:46:39;;;;;;;0.60;0.50;;;;;;;20.53;31.73;99609.44;4933700;29;20059;-91
2022/10/04 09:49:35;;;;;;;0.40;0.40;;;;;;;20.27;31.87;99577.69;4929695;29;20031;-91
2022/10/04 09:52:33;;;;;;;0.52;0.50;;;;;;;20.41;32.04;99602.38;4936938;29;20501;-91
2022/10/04 09:55:21;;;;;;;0.55;0.55;;;;;;;20.42;32.06;99612.16;4941220;29;20038;-90
2022/10/04 09:57:56;;;;;;;0.52;0.52;;;;;;;20.40;32.05;99611.63;4940738;29;20052;-91
2022/10/04 10:00:23;;;;;;;0.50;0.50;;;;;;;20.35;32.17;99622.47;4942270;29;20031;-90
2022/10/04 10:03:11;;;;;;;1.58;0.50;;;;;;;20.33;32.13;99621.91;4931527;29;20519;-90
2022/10/04 10:06:20;;;;;;;0.70;0.60;;;;;;;20.33;32.28;99623.81;4942296;29;20035;-89
2022/10/04 10:08:57;;;;;;;1.10;0.50;;;;;;;20.27;32.18;99623.00;4946528;29;20437;-91
2022/10/04 10:15:01;;;;;;;0.55;0.55;;;;;;;20.21;32.45;99638.47;4940691;29;20555;-90
2022/10/04 10:17:39;;;;;;;0.50;0.50;;;;;;;20.19;32.39;99635.19;4942020;29;20032;-91
2022/10/04 10:20:25;;;;;;;1.17;0.57;;;;;;;20.15;32.33;99631.41;4944588;29;20071;-90
2022/10/04 10:23:19;;;;;;;1.77;0.50;;;;;;;20.15;32.27;99641.44;4935578;29;20390;-91
2022/10/04 10:26:03;;;;;;;0.50;0.50;;;;;;;20.14;32.49;99646.03;4946998;28;20042;-91
2022/10/04 10:28:45;;;;;;;0.57;0.57;;;;;;;20.14;32.62;99648.75;4934942;29;20023;-90
2022/10/04 10:31:23;;;;;;;0.50;0.50;;;;;;;20.11;32.61;99656.59;4936425;28;20079;-91
2022/10/04 10:34:36;;;;;;;0.65;0.60;;;;;;;20.06;32.54;99644.69;4931211;29;20024;-92
2022/10/04 10:37:21;;;;;;;0.70;0.70;;;;;;;20.10;32.59;99655.00;4926580;29;20075;-91
2022/10/04 10:40:24;;;;;;;0.93;0.50;;;;;;;20.06;32.67;99650.09;4930839;29;20192;-91
2022/10/04 10:43:08;;;;;;;0.47;0.47;;;;;;;20.04;32.68;99663.13;4941956;28;20752;-91
2022/10/04 10:45:51;;;;;;;0.45;0.45;;;;;;;20.00;32.73;99672.06;4951326;28;20499;-90
2022/10/04 10:48:29;;;;;;;0.60;0.60;;;;;;;19.98;32.99;99666.09;4945336;28;20079;-91
2022/10/04 10:51:22;;;;;;;0.52;0.50;;;;;;;20.12;32.73;99671.81;4953923;28;20027;-91
2022/10/04 10:54:19;;;;;;;0.65;0.60;;;;;;;20.42;32.23;99662.88;4946732;29;20909;-91
2022/10/04 10:56:58;;;;;;;0.55;0.40;;;;;;;20.70;32.04;99677.06;4938074;29;20051;-91
2022/10/04 10:59:42;;;;;;;0.57;0.57;;;;;;;20.92;31.60;99666.72;4942869;29;20038;-92
2022/10/04 11:02:35;;;;;;;0.50;0.50;;;;;;;21.09;31.53;99671.81;4942786;28;20032;-91
2022/10/04 11:05:03;;;;;;;0.57;0.40;;;;;;;21.07;31.47;99674.00;4943379;29;20056;-91
2022/10/04 11:08:01;;;;;;;0.50;0.50;;;;;;;20.99;31.84;99674.59;4948311;29;20046;-91
2022/10/04 11:10:51;;;;;;;1.63;0.50;;;;;;;20.89;31.75;99677.31;4939488;28;20039;-91
2022/10/04 11:13:41;;;;;;;0.40;0.40;;;;;;;20.77;32.05;99678.41;4946309;29;20412;-91
2022/10/04 11:17:04;;;;;;;0.40;0.40;;;;;;;20.62;32.21;99678.41;4952329;29;20042;-91
2022/10/04 11:20:03;;;;;;;0.45;0.40;;;;;;;20.57;32.23;99684.59;4893543;29;20036;-90
2022/10/04 11:22:43;;;;;;;0.70;0.45;;;;;;;20.51;32.42;99693.03;4827934;29;20312;-92
2022/10/04 11:25:34;;;;;;;0.30;0.30;;;;;;;20.45;32.49;99695.75;4942621;29;20131;-91
2022/10/04 11:28:01;;;;;;;0.40;0.40;;;;;;;20.40;32.66;99692.19;4948757;29;20061;-92
2022/10/04 11:30:51;;;;;;;0.52;0.50;;;;;;;20.32;32.55;99690.03;4940746;29;20122;-91
2022/10/04 11:33:26;;;;;;;0.45;0.40;;;;;;;20.36;32.70;99707.41;4943547;29;20380;-93
2022/10/04 11:35:57;;;;;;;0.45;0.45;;;;;;;20.28;32.64;99695.16;4947853;29;20031;-92
2022/10/04 11:38:47;;;;;;;1.48;0.30;;;;;;;20.29;32.85;99715.78;4942027;29;20281;-92
2022/10/04 11:41:26;;;;;;;0.50;0.50;;;;;;;20.25;32.85;99712.81;4947133;29;20027;-92
2022/10/04 11:44:14;;;;;;;2.05;0.50;;;;;;;20.12;32.86;99697.03;4937335;29;20050;-92
2022/10/04 11:46:59;;;;;;;0.40;0.40;;;;;;;20.22;32.76;99709.81;4944011;28;20023;-91
2022/10/04 11:49:35;;;;;;;0.35;0.35;;;;;;;20.18;32.71;99716.84;4952920;28;20035;-92
2022/10/04 11:52:25;;;;;;;1.42;0.40;;;;;;;20.18;32.86;99723.09;4949871;28;20074;-91
2022/10/04 11:55:30;;;;;;;0.40;0.40;;;;;;;20.15;32.84;99731.78;4944848;29;20042;-91
2022/10/04 11:58:12;;;;;;;0.55;0.47;;;;;;;20.12;32.91;99728.78;4938139;29;20047;-91
2022/10/04 12:01:15;;;;;;;0.50;0.50;;;;;;;20.10;32.94;99731.75;4943549;29;20497;-92
2022/10/04 12:04:05;;;;;;;0.45;0.45;;;;;;;20.09;32.83;99746.38;4943561;29;20039;-90
2022/10/04 12:06:33;;;;;;;0.30;0.30;;;;;;;20.05;32.84;99746.09;4937726;29;20042;-91
2022/10/04 12:09:03;;;;;;;0.38;0.38;;;;;;;20.05;32.89;99748.81;4937858;29;20059;-92
2022/10/04 12:15:03;;;;;;;0.55;0.55;;;;;;;20.02;32.77;99752.09;4933024;29;20416;-92
2022/10/04 12:18:08;;;;;;;0.50;0.40;;;;;;;19.94;32.96;99739.03;4919597;29;20036;-91
2022/10/04 12:20:34;;;;;;;0.47;0.47;;;;;;;20.04;32.82;99752.63;4943024;29;20484;-91
2022/10/04 12:23:19;;;;;;;0.80;0.50;;;;;;;20.03;33.01;99761.84;4939193;28;20067;-92
2022/10/04 12:26:06;;;;;;;0.47;0.47;;;;;;;19.97;32.89;99762.91;4946381;28;20058;-92
2022/10/04 12:28:57;;;;;;;0.32;0.32;;;;;;;19.99;32.86;99768.88;4937977;29;20027;-92
2022/10/04 12:31:45;;;;;;;0.45;0.35;;;;;;;19.99;33.09;99763.47;4938572;29;20043;-92
2022/10/04 12:34:16;;;;;;;0.40;0.40;;;;;;;19.95;33.17;99777.81;4943582;29;20097;-92
2022/10/04 12:36:47;;;;;;;0.32;0.32;;;;;;;19.94;32.97;99779.72;4943673;29;20031;-92
2022/10/04 12:39:35;;;;;;;0.30;0.30;;;;;;;19.95;33.05;99777.81;4940568;28;20023;-93
2022/10/04 12:42:12;;;;;;;0.30;0.30;;;;;;;19.94;32.93;99773.44;4932947;29;20047;-92